Time;durP1;ratioP1;P1;durP2;ratioP2;P2;SDS_P1;SDS_P2;PMS_P1;PMS_P2;Temp;Humidity;BMP_temperature;BMP_pressure;BME280_temperature;BME280_humidity;BME280_pressure;Samples;Min_cycle;Max_cycle;Signal;HPM_P1;HPM_P2
2021/04/18 00:00:55;;;;;;;19.13;5.85;;;;;;;6.86;62.32;102380.59;4993083;28;20049;-73
2021/04/18 00:03:22;;;;;;;15.80;6.07;;;;;;;6.84;62.48;102369.41;4986177;28;20051;-74
2021/04/18 00:05:48;;;;;;;19.63;6.38;;;;;;;6.78;62.90;102365.34;4992555;28;20054;-74
2021/04/18 00:08:15;;;;;;;18.27;6.00;;;;;;;6.82;62.86;102363.44;4986009;28;20050;-74
2021/04/18 00:10:43;;;;;;;24.35;7.68;;;;;;;6.78;62.81;102367.97;4982698;28;20082;-74
2021/04/18 00:13:12;;;;;;;20.02;7.00;;;;;;;6.68;63.54;102356.34;5001251;28;20046;-76
2021/04/18 00:15:42;;;;;;;;;;;;;;;6.71;62.77;102364.03;5005227;28;20076;-74
2021/04/18 00:18:11;;;;;;;25.88;6.72;;;;;;;6.71;63.84;102366.63;4995544;28;20360;-74
2021/04/18 00:20:38;;;;;;;21.75;6.18;;;;;;;6.67;63.73;102368.56;4983062;28;20058;-73
2021/04/18 00:23:05;;;;;;;23.58;7.10;;;;;;;6.70;63.87;102376.22;4980024;28;20053;-73
2021/04/18 00:25:31;;;;;;;20.77;6.85;;;;;;;6.67;63.93;102370.34;5000400;28;20053;-73
2021/04/18 00:27:57;;;;;;;19.48;6.32;;;;;;;6.71;63.11;102377.91;5003080;28;20140;-73
2021/04/18 00:30:24;;;;;;;27.10;7.88;;;;;;;6.69;62.96;102379.75;4998715;28;20049;-73
2021/04/18 00:32:57;;;;;;;18.50;6.65;;;;;;;6.72;63.60;102379.59;4997923;28;20054;-74
2021/04/18 00:35:24;;;;;;;26.10;6.72;;;;;;;6.65;63.31;102380.84;4992537;28;20186;-74
2021/04/18 00:37:50;;;;;;;20.77;6.97;;;;;;;6.64;63.69;102384.38;5002483;28;20046;-74
2021/04/18 00:40:19;;;;;;;23.15;6.85;;;;;;;6.63;63.91;102384.47;4980162;28;20061;-72
2021/04/18 00:42:45;;;;;;;28.58;7.25;;;;;;;6.57;64.91;102385.63;5004340;28;20475;-75
2021/04/18 00:45:12;;;;;;;19.08;6.35;;;;;;;6.56;64.41;102377.88;4980017;28;20168;-76
2021/04/18 00:47:44;;;;;;;22.45;7.20;;;;;;;6.51;64.00;102378.97;4998693;28;20131;-76
2021/04/18 00:50:12;;;;;;;21.05;7.78;;;;;;;6.43;64.78;102372.47;5002196;28;20057;-74
2021/04/18 00:52:38;;;;;;;21.50;6.77;;;;;;;6.31;64.34;102371.34;4996773;28;20046;-75
2021/04/18 00:55:08;;;;;;;18.92;7.57;;;;;;;6.17;64.61;102371.25;5000394;28;20490;-74
2021/04/18 00:57:35;;;;;;;20.67;7.95;;;;;;;6.00;64.75;102351.25;4997537;28;20054;-76
2021/04/18 01:00:04;;;;;;;25.33;8.20;;;;;;;6.06;65.00;102369.22;4995275;28;20090;-73
2021/04/18 01:02:33;;;;;;;21.88;7.22;;;;;;;6.05;65.11;102376.16;4991225;28;20054;-73
2021/04/18 01:05:00;;;;;;;23.55;7.28;;;;;;;5.99;65.52;102371.28;5002530;28;20482;-72
2021/04/18 01:07:26;;;;;;;22.08;7.18;;;;;;;6.04;64.79;102376.25;5000875;28;20057;-72
2021/04/18 01:09:53;;;;;;;25.92;7.18;;;;;;;6.03;64.08;102364.97;4992295;28;20053;-72
2021/04/18 01:12:20;;;;;;;22.92;6.65;;;;;;;6.06;64.21;102367.44;5002245;28;20140;-72
2021/04/18 01:14:46;;;;;;;20.23;7.18;;;;;;;6.06;64.72;102371.81;4991952;28;20123;-71
2021/04/18 01:17:11;;;;;;;22.13;7.00;;;;;;;6.05;64.02;102364.91;4979872;28;20868;-72
2021/04/18 01:19:38;;;;;;;22.85;7.50;;;;;;;6.02;63.46;102362.44;4995760;28;20049;-72
2021/04/18 01:22:04;;;;;;;23.58;7.43;;;;;;;5.96;64.05;102363.63;5000387;28;20061;-73
2021/04/18 01:24:30;;;;;;;20.58;6.28;;;;;;;5.94;64.67;102360.22;4994976;28;20053;-73
2021/04/18 01:26:57;;;;;;;22.65;8.15;;;;;;;5.94;64.83;102352.41;4979822;28;20065;-73
2021/04/18 01:29:23;;;;;;;26.58;7.65;;;;;;;5.89;64.56;102351.78;4999761;28;20109;-73
2021/04/18 01:31:49;;;;;;;19.80;6.10;;;;;;;5.87;64.50;102345.81;4976321;28;20058;-73
2021/04/18 01:34:15;;;;;;;17.58;7.50;;;;;;;5.86;64.77;102344.13;4999097;28;20087;-73
2021/04/18 01:36:45;;;;;;;26.25;7.63;;;;;;;5.84;64.34;102345.97;4976470;28;20061;-73
2021/04/18 01:39:13;;;;;;;21.45;6.50;;;;;;;5.78;65.19;102338.47;5001110;28;20057;-73
2021/04/18 01:41:39;;;;;;;23.90;7.40;;;;;;;5.79;65.74;102343.59;4999722;28;20058;-73
2021/04/18 01:44:12;;;;;;;21.17;7.03;;;;;;;5.69;65.20;102339.78;4992228;28;20134;-73
2021/04/18 01:46:39;;;;;;;25.80;7.00;;;;;;;5.68;64.20;102330.28;5005372;28;20140;-73
2021/04/18 01:49:06;;;;;;;26.13;7.50;;;;;;;5.64;66.40;102336.56;5004059;28;20054;-74
2021/04/18 01:51:32;;;;;;;27.33;7.95;;;;;;;5.60;66.00;102330.66;5010173;28;20103;-73
2021/04/18 01:53:58;;;;;;;21.30;7.65;;;;;;;5.64;66.76;102339.16;5000348;28;20058;-73
2021/04/18 01:56:24;;;;;;;21.48;6.82;;;;;;;5.55;65.63;102337.88;5000133;28;20144;-73
2021/04/18 01:58:50;;;;;;;21.67;7.55;;;;;;;5.55;65.76;102325.69;5002504;28;20054;-74
2021/04/18 02:01:16;;;;;;;20.55;7.05;;;;;;;5.48;65.74;102329.53;4996901;28;20054;-73
2021/04/18 02:03:43;;;;;;;22.42;6.47;;;;;;;5.45;66.34;102334.03;4983823;28;20047;-73
2021/04/18 02:06:10;;;;;;;24.90;7.20;;;;;;;5.40;67.01;102333.44;4992317;28;20061;-73
2021/04/18 02:08:37;;;;;;;22.13;7.03;;;;;;;5.38;66.45;102330.06;5002834;28;20191;-74
2021/04/18 02:11:03;;;;;;;24.00;7.32;;;;;;;5.38;67.48;102338.72;4990997;28;20663;-74
2021/04/18 02:13:31;;;;;;;19.30;6.88;;;;;;;5.31;66.45;102321.69;4998099;28;20131;-75
2021/04/18 02:15:58;;;;;;;15.70;6.40;;;;;;;5.26;66.80;102324.53;5003736;28;20731;-74
2021/04/18 02:18:24;;;;;;;20.30;6.38;;;;;;;5.26;66.86;102308.09;4992535;28;20050;-74
2021/04/18 02:20:51;;;;;;;24.15;7.85;;;;;;;5.23;67.51;102309.06;4986807;28;20061;-74
2021/04/18 02:23:17;;;;;;;24.63;7.10;;;;;;;5.30;68.38;102322.63;4992193;28;20053;-73
2021/04/18 02:25:43;;;;;;;22.45;7.57;;;;;;;5.29;67.37;102323.53;4996157;28;20049;-73
2021/04/18 02:28:09;;;;;;;19.55;6.82;;;;;;;5.26;67.57;102328.91;4999189;28;20058;-73
2021/04/18 02:30:36;;;;;;;25.55;7.22;;;;;;;5.21;67.40;102320.47;4999066;28;20061;-74
2021/04/18 02:33:02;;;;;;;22.05;7.43;;;;;;;5.20;68.17;102327.44;4998471;28;20545;-74
2021/04/18 02:35:28;;;;;;;19.63;6.65;;;;;;;5.20;66.69;102329.22;4993303;28;20056;-73
2021/04/18 02:37:54;;;;;;;23.20;6.60;;;;;;;5.15;66.06;102327.69;4980457;28;20540;-73
2021/04/18 02:40:20;;;;;;;16.17;6.72;;;;;;;5.07;66.65;102310.75;4991322;28;20057;-73
2021/04/18 02:42:46;;;;;;;18.98;6.82;;;;;;;5.06;67.14;102328.09;4998899;28;20064;-74
2021/04/18 02:45:14;;;;;;;21.75;7.05;;;;;;;5.10;67.02;102331.41;4977562;28;20116;-73
2021/04/18 02:47:40;;;;;;;19.55;6.78;;;;;;;5.12;66.58;102330.41;5001063;28;20089;-74
2021/04/18 02:50:08;;;;;;;21.40;7.38;;;;;;;5.07;66.88;102328.94;4997447;28;20049;-74
2021/04/18 02:52:34;;;;;;;19.15;7.15;;;;;;;4.94;67.11;102334.75;4971244;28;20046;-74
2021/04/18 02:55:01;;;;;;;29.42;7.90;;;;;;;4.88;67.17;102321.16;4987606;28;20584;-74
2021/04/18 02:57:27;;;;;;;21.17;7.13;;;;;;;4.86;67.88;102323.88;4994858;28;20053;-74
2021/04/18 02:59:53;;;;;;;22.00;7.13;;;;;;;4.85;68.38;102329.13;5001768;28;20053;-74
2021/04/18 03:02:19;;;;;;;19.98;6.03;;;;;;;4.87;67.30;102322.09;4993842;28;20643;-73
2021/04/18 03:04:46;;;;;;;18.17;7.43;;;;;;;4.86;68.18;102325.59;5000010;28;20056;-74
2021/04/18 03:07:13;;;;;;;19.27;7.25;;;;;;;4.86;67.46;102328.19;4978187;28;20140;-74
2021/04/18 03:09:39;;;;;;;22.25;7.32;;;;;;;4.83;67.54;102325.75;4991316;28;20069;-74
2021/04/18 03:12:05;;;;;;;19.17;6.97;;;;;;;4.80;67.18;102331.09;5001422;28;20050;-74
2021/04/18 03:14:31;;;;;;;24.58;6.93;;;;;;;4.75;68.20;102326.13;4986890;28;20564;-74
2021/04/18 03:16:57;;;;;;;20.48;7.00;;;;;;;4.71;67.94;102325.41;5000881;28;20058;-74
2021/04/18 03:19:23;;;;;;;19.80;7.38;;;;;;;4.67;68.29;102326.47;4977631;28;20136;-74
2021/04/18 03:21:49;;;;;;;19.42;7.78;;;;;;;4.65;68.07;102320.50;4997431;28;20071;-74
2021/04/18 03:24:15;;;;;;;21.67;8.10;;;;;;;4.62;68.92;102312.84;4998848;28;20053;-74
2021/04/18 03:26:41;;;;;;;24.75;7.22;;;;;;;4.64;68.81;102311.00;4977982;28;20057;-73
2021/04/18 03:29:07;;;;;;;22.13;7.88;;;;;;;4.62;69.98;102307.63;4995237;28;20435;-73
2021/04/18 03:31:34;;;;;;;28.88;8.48;;;;;;;4.64;70.05;102312.78;4991705;28;20053;-74
2021/04/18 03:34:00;;;;;;;22.73;8.13;;;;;;;4.63;69.72;102316.31;4978031;28;20054;-74
2021/04/18 03:36:26;;;;;;;18.85;7.38;;;;;;;4.55;68.54;102304.50;4986015;28;20050;-73
2021/04/18 03:38:52;;;;;;;20.50;8.00;;;;;;;4.54;69.26;102300.19;4982149;28;20785;-73
2021/04/18 03:41:18;;;;;;;26.40;9.07;;;;;;;4.49;69.90;102296.97;4998535;28;20053;-74
2021/04/18 03:43:44;;;;;;;22.83;8.23;;;;;;;4.52;70.02;102296.00;4974908;28;20075;-73
2021/04/18 03:46:10;;;;;;;23.20;7.97;;;;;;;4.53;68.89;102298.53;4984955;28;20108;-73
2021/04/18 03:48:36;;;;;;;22.65;7.55;;;;;;;4.52;68.46;102303.78;4971722;28;20046;-73
2021/04/18 03:51:03;;;;;;;18.83;7.18;;;;;;;4.46;67.98;102298.88;4997477;28;20056;-73
2021/04/18 03:53:29;;;;;;;18.45;7.60;;;;;;;4.41;68.09;102303.44;4976573;28;20131;-73
2021/04/18 03:55:55;;;;;;;22.45;7.57;;;;;;;4.31;68.31;102288.28;4998484;28;20053;-73
2021/04/18 03:58:21;;;;;;;26.50;8.07;;;;;;;4.37;68.70;102302.72;4997425;28;20053;-73
2021/04/18 04:00:47;;;;;;;25.88;7.85;;;;;;;4.35;68.80;102305.41;4989344;28;20112;-73
2021/04/18 04:03:13;;;;;;;24.00;8.20;;;;;;;4.33;67.94;102301.19;4992748;28;20049;-73
2021/04/18 04:05:40;;;;;;;22.85;7.55;;;;;;;4.25;68.46;102298.09;4993430;28;20058;-73
2021/04/18 04:08:06;;;;;;;30.70;8.05;;;;;;;4.26;67.78;102300.63;4984693;28;20115;-73
2021/04/18 04:10:32;;;;;;;26.98;8.18;;;;;;;4.23;68.25;102298.16;4993047;28;20064;-73
2021/04/18 04:12:58;;;;;;;20.45;7.68;;;;;;;4.20;68.88;102293.09;4995986;28;20837;-73
2021/04/18 04:15:24;;;;;;;19.50;7.85;;;;;;;4.27;68.25;102301.47;4992018;28;20050;-73
2021/04/18 04:17:51;;;;;;;21.67;8.05;;;;;;;4.27;68.36;102307.53;4972386;28;20053;-73
2021/04/18 04:20:17;;;;;;;18.33;7.78;;;;;;;4.28;67.44;102308.34;4996827;28;20184;-73
2021/04/18 04:22:43;;;;;;;20.52;7.47;;;;;;;4.23;67.67;102305.94;4976663;28;20049;-73
2021/04/18 04:25:10;;;;;;;19.30;7.70;;;;;;;4.26;67.56;102310.19;4999147;28;20096;-72
2021/04/18 04:27:37;;;;;;;20.98;8.35;;;;;;;4.19;67.70;102303.56;4996540;28;20141;-73
2021/04/18 04:30:04;;;;;;;20.63;7.85;;;;;;;4.20;67.64;102316.50;4990859;28;20304;-73
2021/04/18 04:32:30;;;;;;;20.45;7.15;;;;;;;4.19;67.94;102319.97;4979411;28;20483;-73
2021/04/18 04:34:57;;;;;;;20.15;8.25;;;;;;;4.15;68.22;102313.25;4993469;28;20064;-73
2021/04/18 04:37:23;;;;;;;21.50;8.25;;;;;;;4.15;68.12;102323.63;4996871;28;20056;-73
2021/04/18 04:39:49;;;;;;;23.42;8.25;;;;;;;4.07;68.21;102318.78;4991784;28;20053;-73
2021/04/18 04:42:15;;;;;;;27.88;8.52;;;;;;;4.03;69.72;102316.38;4994591;28;20056;-73
2021/04/18 04:44:41;;;;;;;27.58;8.45;;;;;;;3.99;69.53;102318.25;4972698;28;20827;-73
2021/04/18 04:47:07;;;;;;;20.73;8.05;;;;;;;3.99;68.92;102320.03;4982947;28;20065;-73
2021/04/18 04:49:33;;;;;;;20.83;7.60;;;;;;;4.02;68.04;102330.25;4997456;28;20068;-73
2021/04/18 04:51:59;;;;;;;22.23;7.82;;;;;;;4.04;67.84;102331.03;4980146;28;20054;-73
2021/04/18 04:54:26;;;;;;;21.75;8.15;;;;;;;4.02;68.18;102322.47;4984224;28;20454;-73
2021/04/18 04:56:52;;;;;;;23.15;7.07;;;;;;;4.08;68.13;102333.47;4989850;28;20745;-73
2021/04/18 04:59:18;;;;;;;28.25;9.23;;;;;;;4.04;68.59;102326.72;4984208;28;20080;-73
2021/04/18 05:01:44;;;;;;;25.30;8.65;;;;;;;4.05;69.26;102323.19;4995057;28;20104;-73
2021/04/18 05:04:10;;;;;;;18.98;7.28;;;;;;;4.10;68.06;102323.00;4995792;28;20050;-73
2021/04/18 05:06:36;;;;;;;24.17;8.30;;;;;;;4.02;68.37;102330.25;5004349;28;20053;-73
2021/04/18 05:09:04;;;;;;;22.63;8.20;;;;;;;4.04;68.00;102331.91;4974876;28;20054;-73
2021/04/18 05:11:30;;;;;;;20.70;8.52;;;;;;;3.97;69.58;102328.72;4998466;28;20756;-74
2021/04/18 05:13:57;;;;;;;18.20;8.38;;;;;;;3.93;69.76;102329.75;4995694;28;20064;-74
2021/04/18 05:16:23;;;;;;;19.70;7.85;;;;;;;3.89;69.73;102328.22;4998632;28;20091;-74
2021/04/18 05:18:49;;;;;;;24.25;8.48;;;;;;;3.93;69.29;102332.34;4978757;28;20080;-74
2021/04/18 05:21:15;;;;;;;23.08;8.13;;;;;;;3.86;69.55;102324.91;5002699;28;20061;-74
2021/04/18 05:23:41;;;;;;;20.30;7.88;;;;;;;3.94;69.43;102335.81;4982542;28;20103;-74
2021/04/18 05:26:07;;;;;;;24.60;8.95;;;;;;;3.99;70.18;102341.63;4978450;28;20046;-74
2021/04/18 05:28:34;;;;;;;22.67;8.65;;;;;;;4.00;70.91;102340.75;5005464;28;20063;-73
2021/04/18 05:31:03;;;;;;;24.95;8.45;;;;;;;3.99;71.30;102333.00;4992456;28;20485;-73
2021/04/18 05:33:29;;;;;;;21.92;9.48;;;;;;;4.09;71.05;102335.13;4981084;28;20124;-73
2021/04/18 05:35:55;;;;;;;24.48;9.20;;;;;;;4.14;71.64;102335.78;4998046;28;20054;-73
2021/04/18 05:38:21;;;;;;;27.05;9.60;;;;;;;4.15;72.53;102340.03;4988781;28;20178;-75
2021/04/18 05:40:47;;;;;;;22.13;8.77;;;;;;;4.22;72.30;102332.00;5001637;28;20725;-75
2021/04/18 05:43:14;;;;;;;23.40;9.20;;;;;;;4.31;71.50;102331.56;4994581;28;20497;-75
2021/04/18 05:45:40;;;;;;;26.50;9.55;;;;;;;4.30;72.46;102335.09;5000405;28;20139;-75
2021/04/18 05:48:07;;;;;;;23.63;9.43;;;;;;;4.39;71.71;102326.03;4979716;28;20061;-74
2021/04/18 05:50:33;;;;;;;24.48;9.38;;;;;;;4.44;71.58;102330.13;4981921;28;20054;-74
2021/04/18 05:52:59;;;;;;;25.55;9.65;;;;;;;4.51;71.14;102338.50;4996365;28;20060;-74
2021/04/18 05:55:26;;;;;;;30.88;9.88;;;;;;;4.52;70.51;102332.38;4991227;28;20933;-74
2021/04/18 05:57:52;;;;;;;24.17;10.35;;;;;;;4.63;71.48;102335.34;4999617;28;20057;-75
2021/04/18 06:00:19;;;;;;;29.38;11.07;;;;;;;4.64;72.83;102331.81;4995966;28;20057;-74
2021/04/18 06:02:45;;;;;;;25.15;10.80;;;;;;;4.68;73.86;102330.75;4983741;28;20050;-75
2021/04/18 06:05:12;;;;;;;22.73;11.63;;;;;;;4.73;73.56;102328.78;4990478;28;20064;-74
2021/04/18 06:07:39;;;;;;;31.60;11.15;;;;;;;4.77;74.00;102320.84;4998571;28;20104;-74
2021/04/18 06:10:07;;;;;;;29.67;10.65;;;;;;;4.84;73.53;102330.03;4996478;28;20112;-74
2021/04/18 06:12:33;;;;;;;29.25;11.93;;;;;;;4.88;73.52;102318.56;4990572;28;20486;-74
2021/04/18 06:15:00;;;;;;;26.52;10.52;;;;;;;4.91;73.90;102319.28;4997150;28;20054;-74
2021/04/18 06:17:26;;;;;;;26.73;10.52;;;;;;;4.98;73.30;102325.03;4993538;28;20054;-75
2021/04/18 06:19:52;;;;;;;35.05;11.15;;;;;;;5.04;73.42;102322.16;4995573;28;20697;-75
2021/04/18 06:22:19;;;;;;;35.42;13.10;;;;;;;5.11;73.72;102323.50;4994749;28;20137;-74
2021/04/18 06:24:45;;;;;;;32.05;11.50;;;;;;;5.20;72.88;102322.25;5002279;28;20802;-75
2021/04/18 06:27:11;;;;;;;28.95;11.55;;;;;;;5.31;73.78;102327.78;5004640;28;20049;-74
2021/04/18 06:29:37;;;;;;;31.55;11.10;;;;;;;5.39;73.29;102335.19;4995798;28;20112;-74
2021/04/18 06:32:03;;;;;;;29.83;12.45;;;;;;;5.48;73.17;102336.50;4991403;28;20049;-74
2021/04/18 06:34:30;;;;;;;27.65;12.32;;;;;;;5.55;73.49;102346.53;4990790;28;20892;-74
2021/04/18 06:36:56;;;;;;;33.20;12.13;;;;;;;5.61;73.18;102345.38;4981388;28;20057;-74
2021/04/18 06:39:22;;;;;;;28.20;12.40;;;;;;;5.72;72.71;102347.44;4994884;28;20058;-74
2021/04/18 06:41:52;;;;;;;32.72;12.30;;;;;;;5.80;72.06;102358.31;4994571;28;20495;-74
2021/04/18 06:44:19;;;;;;;28.92;12.10;;;;;;;5.86;72.65;102338.91;4993736;28;20045;-74
2021/04/18 06:46:47;;;;;;;35.20;12.27;;;;;;;5.93;71.50;102335.91;4980827;28;20062;-75
2021/04/18 06:49:14;;;;;;;;;;;;;;;6.01;71.61;102338.16;4979837;28;20049;-75
2021/04/18 06:51:40;;;;;;;35.83;12.25;;;;;;;6.06;71.85;102325.75;4986150;28;19986;-75
2021/04/18 06:54:07;;;;;;;26.92;11.07;;;;;;;6.14;71.38;102323.59;4998732;28;20041;-75
2021/04/18 06:56:33;;;;;;;36.28;11.60;;;;;;;6.28;71.34;102309.00;4978820;28;20124;-75
2021/04/18 06:59:00;;;;;;;32.58;10.90;;;;;;;6.36;71.61;102314.63;5000728;28;20076;-74
2021/04/18 07:01:27;;;;;;;30.75;10.70;;;;;;;6.44;71.09;102312.44;4974481;28;20640;-74
2021/04/18 07:04:16;;;;;;;38.50;13.25;;;;;;;6.57;70.55;102306.59;4999593;28;20157;-74
2021/04/18 07:06:43;;;;;;;40.95;11.90;;;;;;;6.67;70.63;102302.53;4997352;28;20335;-74
2021/04/18 07:09:10;;;;;;;25.60;12.45;;;;;;;6.79;71.31;102303.63;4994379;28;20417;-75
2021/04/18 07:11:53;;;;;;;34.33;11.18;;;;;;;6.89;71.18;102313.44;4994387;28;20097;-74
2021/04/18 07:14:27;;;;;;;23.65;9.45;;;;;;;6.97;69.62;102307.81;4983614;28;20046;-74
2021/04/18 07:17:05;;;;;;;29.15;10.88;;;;;;;7.05;69.24;102316.03;4991074;28;20046;-74
2021/04/18 07:19:37;;;;;;;36.13;10.55;;;;;;;7.10;69.60;102315.78;4992980;28;20049;-74
2021/04/18 07:22:03;;;;;;;29.50;10.45;;;;;;;7.17;69.30;102316.25;4994419;28;20053;-74
2021/04/18 07:24:30;;;;;;;25.52;10.15;;;;;;;7.22;68.84;102312.47;4998914;28;20049;-74
2021/04/18 07:27:03;;;;;;;27.65;9.77;;;;;;;7.27;68.83;102320.88;4996152;28;20129;-74
2021/04/18 07:29:33;;;;;;;22.70;9.50;;;;;;;7.34;68.36;102323.97;4988204;28;20136;-74
2021/04/18 07:32:15;;;;;;;28.15;9.95;;;;;;;7.42;68.44;102326.16;4976274;28;20741;-74
2021/04/18 07:34:42;;;;;;;21.80;8.80;;;;;;;7.47;67.37;102329.34;4997512;28;20057;-74
2021/04/18 07:37:13;;;;;;;15.38;7.88;;;;;;;7.51;66.89;102333.44;4978421;28;20053;-73
2021/04/18 07:39:49;;;;;;;31.25;10.48;;;;;;;7.50;66.99;102327.38;5000786;28;20046;-72
2021/04/18 07:42:39;;;;;;;22.58;8.10;;;;;;;7.64;67.59;102328.34;4983944;28;20961;-75
2021/04/18 07:45:09;;;;;;;20.27;7.47;;;;;;;7.67;66.91;102328.16;4995134;28;20683;-74
2021/04/18 07:47:37;;;;;;;23.10;9.02;;;;;;;7.76;66.65;102322.38;4989339;28;20096;-74
2021/04/18 07:50:09;;;;;;;22.77;7.97;;;;;;;7.82;65.90;102322.03;4993651;28;20089;-74
2021/04/18 07:52:38;;;;;;;23.95;8.07;;;;;;;7.91;65.23;102320.63;4984736;28;20053;-74
2021/04/18 07:55:05;;;;;;;23.20;8.73;;;;;;;7.95;65.29;102321.28;4996910;28;20057;-72
2021/04/18 07:57:31;;;;;;;20.70;6.72;;;;;;;8.08;64.57;102320.47;4976302;28;20061;-73
2021/04/18 07:59:58;;;;;;;23.08;7.50;;;;;;;8.18;63.80;102312.06;4975157;28;20061;-72
2021/04/18 08:02:25;;;;;;;20.63;6.60;;;;;;;8.33;63.46;102305.88;4978037;28;20069;-73
2021/04/18 08:04:56;;;;;;;16.50;6.78;;;;;;;8.59;62.87;102308.69;4966321;28;20136;-73
2021/04/18 08:07:23;;;;;;;20.58;7.18;;;;;;;8.81;62.24;102306.34;4998213;28;20053;-73
2021/04/18 08:10:25;;;;;;;17.83;6.85;;;;;;;9.13;61.12;102308.66;4990977;28;20057;-74
2021/04/18 08:13:23;;;;;;;16.67;6.40;;;;;;;9.37;58.96;102310.59;4996970;28;20046;-73
2021/04/18 08:15:53;;;;;;;15.88;6.03;;;;;;;9.63;58.71;102308.88;4986240;28;20636;-73
2021/04/18 08:18:30;;;;;;;12.85;6.15;;;;;;;9.99;58.18;102302.03;5000245;28;20058;-73
2021/04/18 08:20:58;;;;;;;17.08;6.80;;;;;;;10.17;56.95;102308.63;5003818;28;20065;-73
2021/04/18 08:23:35;;;;;;;15.00;5.53;;;;;;;10.29;56.98;102306.94;4995369;28;20115;-73
2021/04/18 08:26:10;;;;;;;16.00;5.72;;;;;;;10.38;56.47;102302.84;5002470;28;20053;-74
2021/04/18 08:28:51;;;;;;;18.75;5.82;;;;;;;10.72;55.48;102311.75;4997506;28;20060;-75
2021/04/18 08:31:19;;;;;;;14.38;5.97;;;;;;;10.78;55.19;102313.97;4984443;28;20515;-74
2021/04/18 08:33:48;;;;;;;16.13;5.00;;;;;;;10.75;53.05;102301.03;4978697;28;20112;-73
2021/04/18 08:36:23;;;;;;;14.23;5.40;;;;;;;10.84;52.73;102299.56;4998466;28;20450;-73
2021/04/18 08:39:12;;;;;;;10.70;5.38;;;;;;;11.12;52.21;102298.34;4986387;28;20051;-74
2021/04/18 08:41:49;;;;;;;13.05;5.10;;;;;;;11.31;51.66;102302.22;4967514;28;20065;-73
2021/04/18 08:44:17;;;;;;;14.75;4.70;;;;;;;11.46;51.90;102308.97;4991915;28;20053;-73
2021/04/18 08:46:45;;;;;;;15.47;4.77;;;;;;;11.60;50.60;102302.66;5001930;28;20053;-72
2021/04/18 08:49:24;;;;;;;10.60;4.97;;;;;;;11.79;50.56;102299.47;5002887;28;20132;-73
2021/04/18 08:51:51;;;;;;;15.75;5.22;;;;;;;11.92;50.86;102302.00;4996074;28;20061;-75
2021/04/18 08:54:29;;;;;;;18.95;5.55;;;;;;;12.17;49.62;102306.19;4996246;28;20081;-73
2021/04/18 08:57:06;;;;;;;14.55;5.63;;;;;;;12.26;50.07;102300.22;4995355;28;20085;-74
2021/04/18 08:59:33;;;;;;;17.75;5.53;;;;;;;12.26;49.41;102308.09;4994734;28;20054;-74
2021/04/18 09:02:09;;;;;;;16.27;5.57;;;;;;;12.20;47.33;102308.59;4992623;28;20056;-72
2021/04/18 09:04:38;;;;;;;13.80;6.53;;;;;;;12.22;49.81;102304.03;4990495;28;20104;-71
2021/04/18 09:07:06;;;;;;;13.63;5.22;;;;;;;12.23;48.12;102308.31;4967461;28;20516;-72
2021/04/18 09:09:32;;;;;;;11.93;4.33;;;;;;;12.44;46.77;102292.63;4995154;28;20101;-76
2021/04/18 09:11:58;;;;;;;9.23;3.83;;;;;;;12.66;46.85;102302.28;4986718;28;20346;-73
2021/04/18 09:14:32;;;;;;;12.57;4.28;;;;;;;12.93;45.85;102296.56;4993755;28;20103;-75
2021/04/18 09:17:23;;;;;;;12.40;5.00;;;;;;;13.26;46.37;102292.09;4986697;28;20081;-76
2021/04/18 09:19:58;;;;;;;10.27;4.82;;;;;;;13.43;44.92;102288.94;4977834;28;20141;-76
2021/04/18 09:22:28;;;;;;;10.32;4.55;;;;;;;13.61;43.00;102283.06;4998372;28;20100;-74
2021/04/18 09:25:12;;;;;;;9.85;4.40;;;;;;;13.70;43.08;102286.72;5002965;28;20054;-75
2021/04/18 09:27:47;;;;;;;9.40;4.20;;;;;;;13.98;43.69;102288.66;5003699;28;20057;-74
2021/04/18 09:30:24;;;;;;;12.23;4.53;;;;;;;14.10;41.80;102278.84;4993588;28;20073;-75
2021/04/18 09:32:53;;;;;;;10.10;4.78;;;;;;;14.25;41.72;102279.31;4998839;28;20112;-76
2021/04/18 09:35:22;;;;;;;10.63;3.95;;;;;;;14.50;42.43;102280.59;4994269;28;20588;-74
2021/04/18 09:37:56;;;;;;;11.57;4.85;;;;;;;14.56;40.76;102285.38;5002782;28;20049;-75
2021/04/18 09:40:26;;;;;;;13.70;4.53;;;;;;;14.73;41.81;102272.47;4987183;28;20556;-76
2021/04/18 09:42:53;;;;;;;12.70;4.45;;;;;;;14.92;40.19;102276.91;4998049;28;20683;-76
2021/04/18 09:45:25;;;;;;;9.68;4.25;;;;;;;15.17;39.47;102272.84;5002041;28;21889;-77
2021/04/18 09:47:54;;;;;;;11.13;4.32;;;;;;;15.27;40.99;102281.63;4974825;28;20046;-76
2021/04/18 09:50:34;;;;;;;13.10;4.38;;;;;;;15.30;39.57;102275.19;4998797;28;20054;-76
2021/04/18 09:53:30;;;;;;;11.38;4.78;;;;;;;15.67;38.86;102269.94;4979280;28;20104;-76
2021/04/18 09:55:59;;;;;;;12.05;4.55;;;;;;;15.94;38.20;102274.47;4989202;28;20064;-77
2021/04/18 09:58:36;;;;;;;12.85;4.60;;;;;;;16.03;37.98;102280.69;4991718;28;20076;-77
2021/04/18 10:01:04;;;;;;;11.20;4.53;;;;;;;15.99;37.27;102269.59;4995570;28;20494;-77
2021/04/18 10:03:37;;;;;;;13.10;4.50;;;;;;;16.05;36.81;102278.72;4974267;28;20117;-75
2021/04/18 10:06:05;;;;;;;8.60;4.28;;;;;;;16.32;37.74;102279.72;5003064;28;20058;-76
2021/04/18 10:08:34;;;;;;;9.65;4.68;;;;;;;16.33;35.99;102271.63;4999576;28;20113;-76
2021/04/18 10:11:06;;;;;;;14.20;4.95;;;;;;;16.54;36.14;102271.34;4992450;28;20057;-75
2021/04/18 10:13:40;;;;;;;9.95;4.60;;;;;;;16.76;37.84;102272.72;4996403;28;20120;-76
2021/04/18 10:16:34;;;;;;;17.17;4.65;;;;;;;16.76;36.55;102272.72;4992689;28;20053;-75
2021/04/18 10:19:25;;;;;;;15.85;4.28;;;;;;;16.96;35.02;102272.59;4996293;28;20612;-75
2021/04/18 10:22:09;;;;;;;13.02;4.78;;;;;;;16.77;34.15;102253.16;4996771;28;20054;-75
2021/04/18 10:24:48;;;;;;;14.57;5.30;;;;;;;16.99;34.31;102259.84;5002740;28;20123;-76
2021/04/18 10:27:15;;;;;;;;;;;;;;;17.02;34.42;102257.88;4990215;28;20065;-76
2021/04/18 10:29:43;;;;;;;14.23;4.47;;;;;;;17.26;34.36;102252.75;4991232;28;19929;-76
2021/04/18 10:32:14;;;;;;;10.57;4.90;;;;;;;17.46;35.11;102255.19;4992867;28;20057;-76
2021/04/18 10:34:41;;;;;;;12.85;5.10;;;;;;;17.55;33.68;102246.28;4983653;28;20137;-77
2021/04/18 10:37:07;;;;;;;13.60;5.32;;;;;;;17.72;33.37;102240.06;5003172;28;20049;-75
2021/04/18 10:39:33;;;;;;;11.70;5.75;;;;;;;17.92;33.59;102240.69;4980346;28;20053;-74
2021/04/18 10:42:00;;;;;;;12.93;5.63;;;;;;;18.27;34.19;102243.25;4997410;28;20574;-74
2021/04/18 10:44:27;;;;;;;14.25;6.07;;;;;;;18.48;33.46;102232.19;4984069;28;21072;-75
2021/04/18 10:47:01;;;;;;;15.90;6.55;;;;;;;18.58;33.62;102233.69;5000647;28;20151;-75
2021/04/18 10:49:28;;;;;;;15.65;6.25;;;;;;;18.22;34.97;102237.63;4995477;28;20159;-74
2021/04/18 10:51:56;;;;;;;11.60;5.93;;;;;;;18.29;33.78;102234.16;4985903;28;20482;-76
2021/04/18 10:54:22;;;;;;;12.87;6.50;;;;;;;18.20;32.66;102224.50;4987890;28;20056;-76
2021/04/18 10:56:50;;;;;;;13.65;6.45;;;;;;;18.40;32.81;102222.38;4990892;28;20053;-76
2021/04/18 10:59:17;;;;;;;13.30;6.27;;;;;;;18.20;33.37;102229.81;4995720;28;20077;-76
2021/04/18 11:01:44;;;;;;;14.88;6.53;;;;;;;18.35;34.30;102230.03;4995731;28;20370;-75
2021/04/18 11:04:11;;;;;;;11.45;6.47;;;;;;;18.68;33.92;102222.06;5003381;28;20065;-76
2021/04/18 11:06:38;;;;;;;19.35;7.57;;;;;;;18.71;32.79;102216.41;4979088;28;20104;-76
2021/04/18 11:09:05;;;;;;;13.80;6.75;;;;;;;18.93;33.56;102212.28;4998532;28;20414;-75
2021/04/18 11:11:32;;;;;;;14.77;7.30;;;;;;;19.15;34.57;102205.44;4997667;28;20085;-75
2021/04/18 11:13:58;;;;;;;14.70;6.07;;;;;;;19.29;33.64;102212.72;4990692;28;20069;-76
2021/04/18 11:16:25;;;;;;;11.55;6.07;;;;;;;19.43;34.23;102197.88;4983859;28;20850;-77
2021/04/18 11:18:52;;;;;;;12.18;6.68;;;;;;;19.83;35.08;102206.72;4992855;28;20390;-76
2021/04/18 11:21:19;;;;;;;18.98;7.25;;;;;;;19.86;33.62;102195.75;5003076;28;20049;-76
2021/04/18 11:23:45;;;;;;;13.15;7.32;;;;;;;19.90;33.07;102205.03;4997893;28;20048;-77
2021/04/18 11:26:11;;;;;;;17.65;7.78;;;;;;;19.99;33.72;102203.13;4995661;28;20085;-77
2021/04/18 11:28:38;;;;;;;16.15;7.85;;;;;;;19.96;33.71;102203.50;4983855;28;20065;-77